Time;durP1;ratioP1;P1;durP2;ratioP2;P2;SDS_P1;SDS_P2;PMS_P1;PMS_P2;Temp;Humidity;BMP_temperature;BMP_pressure;BME280_temperature;BME280_humidity;BME280_pressure;Samples;Min_cycle;Max_cycle;Signal;HPM_P1;HPM_P2
2024/03/19 00:00:16;;;;;;;4.13;2.53;;;11.00;82.40;;;;;;5071734;28;20054;-67
2024/03/19 00:02:42;;;;;;;4.25;2.60;;;10.90;82.50;;;;;;5069904;28;20023;-67
2024/03/19 00:05:08;;;;;;;3.85;2.55;;;10.90;82.70;;;;;;5071031;28;20067;-67
2024/03/19 00:07:34;;;;;;;5.93;2.72;;;10.90;82.70;;;;;;5074885;28;20028;-66
2024/03/19 00:10:00;;;;;;;3.92;2.50;;;11.00;82.80;;;;;;5071354;28;20035;-67
2024/03/19 00:12:26;;;;;;;4.65;2.63;;;11.10;82.80;;;;;;5071047;28;20126;-67
2024/03/19 00:14:53;;;;;;;4.03;2.67;;;11.10;82.60;;;;;;5075663;28;20024;-67
2024/03/19 00:17:18;;;;;;;4.63;2.95;;;11.20;82.60;;;;;;5070845;28;20013;-67
2024/03/19 00:19:44;;;;;;;5.45;3.03;;;11.20;82.50;;;;;;5071065;28;20035;-67
2024/03/19 00:22:10;;;;;;;4.97;2.92;;;11.20;82.50;;;;;;5073021;28;20063;-66
2024/03/19 00:24:35;;;;;;;4.35;2.58;;;11.20;82.40;;;;;;5072469;28;20025;-66
2024/03/19 00:27:01;;;;;;;4.20;2.70;;;11.20;82.40;;;;;;5075864;28;20486;-67
2024/03/19 00:29:27;;;;;;;4.85;2.65;;;11.10;82.30;;;;;;5075686;28;20032;-67
2024/03/19 00:31:53;;;;;;;4.30;2.60;;;11.20;82.50;;;;;;5074278;28;20031;-67
2024/03/19 00:34:18;;;;;;;4.13;2.30;;;11.20;82.60;;;;;;5073844;28;20020;-67
2024/03/19 00:36:44;;;;;;;3.92;2.50;;;11.20;82.70;;;;;;5072235;28;20060;-67
2024/03/19 00:39:10;;;;;;;5.05;2.92;;;11.20;82.80;;;;;;5076915;28;20317;-67
2024/03/19 00:41:41;;;;;;;4.63;2.42;;;11.20;82.70;;;;;;5071337;28;20032;-66
2024/03/19 00:44:06;;;;;;;4.88;2.58;;;11.30;82.70;;;;;;5076048;28;20016;-66
2024/03/19 00:46:32;;;;;;;5.07;2.70;;;11.30;82.60;;;;;;5074950;28;20028;-66
2024/03/19 00:48:58;;;;;;;4.22;2.60;;;11.30;82.60;;;;;;5078292;28;20028;-65
2024/03/19 00:51:23;;;;;;;3.95;2.63;;;11.30;82.70;;;;;;5077105;28;20282;-65
2024/03/19 00:53:49;;;;;;;3.75;2.40;;;11.30;82.70;;;;;;5078281;28;20032;-65
2024/03/19 00:56:14;;;;;;;4.55;2.80;;;11.30;82.60;;;;;;5075930;28;20020;-65
2024/03/19 00:58:40;;;;;;;4.40;2.55;;;11.30;82.60;;;;;;5076695;28;20059;-67
2024/03/19 01:01:05;;;;;;;4.20;2.60;;;11.40;82.60;;;;;;5074795;28;20020;-65
2024/03/19 01:03:33;;;;;;;4.28;2.58;;;11.40;82.50;;;;;;5077262;28;20032;-66
2024/03/19 01:06:00;;;;;;;4.28;2.80;;;11.40;82.50;;;;;;5074764;28;20020;-66
2024/03/19 01:08:26;;;;;;;4.25;2.67;;;11.40;82.50;;;;;;5078920;28;20031;-66
2024/03/19 01:10:51;;;;;;;5.05;2.50;;;11.40;82.50;;;;;;5078242;28;20024;-66
2024/03/19 01:13:17;;;;;;;4.20;2.53;;;11.40;83.20;;;;;;5074936;28;20387;-66
2024/03/19 01:15:43;;;;;;;4.32;2.50;;;11.40;82.60;;;;;;5072871;28;20028;-67
2024/03/19 01:18:08;;;;;;;4.13;2.65;;;11.40;82.60;;;;;;5076209;28;20031;-67
2024/03/19 01:20:34;;;;;;;3.22;2.20;;;11.30;82.70;;;;;;5076752;28;20090;-67
2024/03/19 01:23:00;;;;;;;4.80;2.70;;;11.30;82.80;;;;;;5078505;28;20433;-67
2024/03/19 01:25:26;;;;;;;3.78;2.58;;;11.40;82.80;;;;;;5080366;28;20032;-67
2024/03/19 01:27:53;;;;;;;3.42;2.35;;;11.40;82.70;;;;;;5077763;28;20036;-67
2024/03/19 01:30:19;;;;;;;4.00;2.25;;;11.40;82.60;;;;;;5081027;28;21386;-67
2024/03/19 01:32:45;;;;;;;4.63;2.20;;;11.50;82.60;;;;;;5077887;28;20036;-67
2024/03/19 01:35:11;;;;;;;3.75;2.30;;;11.40;82.60;;;;;;5079882;28;20024;-66
2024/03/19 01:37:36;;;;;;;5.03;2.30;;;11.40;82.70;;;;;;5071907;28;20032;-66
2024/03/19 01:40:03;;;;;;;3.70;2.33;;;11.50;82.80;;;;;;5079341;28;20020;-66
2024/03/19 01:42:29;;;;;;;4.03;2.30;;;11.40;82.70;;;;;;5078221;28;20032;-66
2024/03/19 01:45:13;;;;;;;3.08;1.98;;;11.40;82.80;;;;;;5073970;28;20479;-68
2024/03/19 01:47:39;;;;;;;4.93;2.38;;;11.40;82.80;;;;;;5075669;28;20035;-67
2024/03/19 01:50:10;;;;;;;5.25;2.40;;;11.50;82.80;;;;;;5073890;28;20028;-67
2024/03/19 01:52:52;;;;;;;3.65;2.20;;;11.50;82.70;;;;;;5078646;28;20427;-67
2024/03/19 01:55:19;;;;;;;4.97;2.55;;;11.50;82.70;;;;;;5074144;28;20020;-68
2024/03/19 01:57:46;;;;;;;3.05;2.10;;;11.40;82.80;;;;;;5076276;28;20096;-66
2024/03/19 02:00:12;;;;;;;3.67;2.05;;;11.40;83.00;;;;;;5073995;28;20017;-67
2024/03/19 02:02:38;;;;;;;3.90;2.20;;;11.50;83.00;;;;;;5075714;28;20457;-67
2024/03/19 02:05:05;;;;;;;3.20;2.10;;;11.50;82.90;;;;;;5070527;28;20115;-66
2024/03/19 02:07:31;;;;;;;4.90;2.25;;;11.50;82.90;;;;;;5076739;28;20544;-66
2024/03/19 02:09:57;;;;;;;3.92;2.03;;;11.50;82.80;;;;;;5074038;28;20040;-66
2024/03/19 02:12:23;;;;;;;3.55;2.15;;;11.50;82.70;;;;;;5076283;28;20044;-67
2024/03/19 02:14:50;;;;;;;3.78;2.30;;;11.50;82.80;;;;;;5075669;28;20057;-65
2024/03/19 02:17:16;;;;;;;2.63;1.80;;;11.50;82.80;;;;;;5073467;28;20029;-65
2024/03/19 02:19:42;;;;;;;3.72;2.00;;;11.50;82.70;;;;;;5075072;28;20028;-66
2024/03/19 02:22:09;;;;;;;3.65;1.75;;;11.50;82.90;;;;;;5075077;28;20036;-66
2024/03/19 02:24:39;;;;;;;2.80;1.98;;;11.50;82.90;;;;;;5076044;28;20081;-65
2024/03/19 02:27:04;;;;;;;3.40;1.98;;;11.50;83.00;;;;;;5079682;28;20036;-67
2024/03/19 02:29:30;;;;;;;3.80;2.10;;;11.50;82.90;;;;;;5077715;28;20112;-65
2024/03/19 02:31:55;;;;;;;3.33;2.13;;;11.50;82.90;;;;;;5077900;28;20036;-65
2024/03/19 02:34:21;;;;;;;3.38;2.00;;;11.60;82.80;;;;;;5075862;28;20032;-66
2024/03/19 02:36:47;;;;;;;3.30;2.08;;;11.60;82.70;;;;;;5075786;28;20024;-67
2024/03/19 02:39:12;;;;;;;4.15;2.20;;;11.70;82.70;;;;;;5077168;28;20416;-66
2024/03/19 02:41:41;;;;;;;5.63;3.10;;;11.70;82.70;;;;;;5074273;28;20095;-66
2024/03/19 02:44:07;;;;;;;7.15;2.97;;;11.60;82.70;;;;;;5073692;28;20107;-66
2024/03/19 02:46:32;;;;;;;5.72;3.08;;;11.60;82.80;;;;;;5079824;28;20099;-66
2024/03/19 02:48:58;;;;;;;4.57;2.83;;;11.60;82.70;;;;;;5079189;28;20032;-66
2024/03/19 02:51:24;;;;;;;6.47;3.35;;;11.60;82.70;;;;;;5072419;28;20036;-66
2024/03/19 02:53:50;;;;;;;4.20;2.30;;;11.60;82.70;;;;;;5078410;28;20496;-66
2024/03/19 02:56:16;;;;;;;4.43;2.60;;;11.60;82.80;;;;;;5072224;28;20067;-66
2024/03/19 02:58:42;;;;;;;6.40;2.78;;;11.60;82.70;;;;;;5076262;28;20028;-66
2024/03/19 03:01:07;;;;;;;6.45;3.35;;;11.60;83.40;;;;;;5071530;28;20017;-67
2024/03/19 03:03:34;;;;;;;6.25;3.15;;;11.60;82.80;;;;;;5071116;28;20021;-67
2024/03/19 03:06:00;;;;;;;4.70;2.88;;;11.60;82.80;;;;;;5068819;28;20024;-66
2024/03/19 03:08:26;;;;;;;5.53;2.80;;;11.60;82.90;;;;;;5077779;28;20050;-67
2024/03/19 03:10:52;;;;;;;5.35;2.90;;;11.60;82.90;;;;;;5068740;28;20016;-66
2024/03/19 03:13:18;;;;;;;3.80;2.30;;;11.60;82.90;;;;;;5073140;28;20085;-66
2024/03/19 03:15:44;;;;;;;4.85;2.90;;;11.60;82.80;;;;;;5071537;28;20029;-67
2024/03/19 03:18:10;;;;;;;4.43;2.67;;;11.60;82.90;;;;;;5071395;28;20025;-67
2024/03/19 03:20:37;;;;;;;5.97;3.10;;;11.60;82.90;;;;;;5073281;28;20476;-66
2024/03/19 03:23:03;;;;;;;7.30;3.00;;;11.60;82.90;;;;;;5074127;28;20063;-66
2024/03/19 03:25:29;;;;;;;7.38;3.30;;;11.60;82.90;;;;;;5073055;28;20119;-66
2024/03/19 03:27:55;;;;;;;9.15;4.53;;;11.60;82.90;;;;;;5074111;28;20103;-66
2024/03/19 03:30:22;;;;;;;6.72;4.00;;;11.60;83.00;;;;;;5073351;28;20024;-66
2024/03/19 03:32:48;;;;;;;7.30;3.47;;;11.60;83.10;;;;;;5070844;28;20038;-66
2024/03/19 03:35:14;;;;;;;5.43;3.17;;;11.50;83.10;;;;;;5076231;28;20025;-66
2024/03/19 03:37:40;;;;;;;4.93;2.78;;;11.60;83.10;;;;;;5074089;28;20429;-65
2024/03/19 03:40:19;;;;;;;8.05;3.80;;;11.60;83.10;;;;;;5069054;28;20048;-66
2024/03/19 03:42:46;;;;;;;7.15;3.90;;;11.60;83.10;;;;;;5073403;28;20032;-66
2024/03/19 03:45:12;;;;;;;7.68;4.32;;;11.60;83.20;;;;;;5074534;28;20070;-67
2024/03/19 03:47:39;;;;;;;8.13;4.80;;;11.60;83.30;;;;;;5075375;28;20035;-66
2024/03/19 03:50:08;;;;;;;8.30;4.28;;;11.50;83.30;;;;;;5069025;28;20138;-66
2024/03/19 03:52:33;;;;;;;10.18;5.85;;;11.50;83.40;;;;;;5077295;28;20054;-67
2024/03/19 03:55:00;;;;;;;7.90;4.88;;;11.50;83.60;;;;;;5070546;28;20056;-67
2024/03/19 03:57:26;;;;;;;7.70;4.60;;;11.50;83.70;;;;;;5077566;28;20031;-67
2024/03/19 03:59:52;;;;;;;8.73;4.95;;;11.50;83.70;;;;;;5075909;28;20028;-67
2024/03/19 04:02:17;;;;;;;10.25;5.53;;;11.60;83.80;;;;;;5072155;28;20329;-67
2024/03/19 04:04:43;;;;;;;11.50;6.10;;;11.50;83.80;;;;;;5073285;28;20025;-66
2024/03/19 04:07:08;;;;;;;11.52;6.18;;;11.50;84.00;;;;;;5072940;28;20040;-67
2024/03/19 04:09:34;;;;;;;11.05;6.18;;;11.50;84.10;;;;;;5079464;28;20076;-66
2024/03/19 04:12:00;;;;;;;9.77;5.22;;;11.50;84.30;;;;;;5068848;28;20044;-66
2024/03/19 04:14:26;;;;;;;11.15;6.07;;;11.50;84.20;;;;;;5071088;28;20028;-66
2024/03/19 04:16:52;;;;;;;11.35;6.75;;;11.50;84.20;;;;;;5073450;28;20025;-67
2024/03/19 04:19:18;;;;;;;10.93;5.85;;;11.50;84.40;;;;;;5079938;28;20103;-66
2024/03/19 04:21:43;;;;;;;15.05;8.32;;;11.60;84.50;;;;;;5076446;28;20174;-66
2024/03/19 04:24:09;;;;;;;13.88;8.02;;;11.50;84.80;;;;;;5079326;28;20483;-66
2024/03/19 04:26:36;;;;;;;12.15;6.20;;;11.50;85.00;;;;;;5076199;28;20047;-66
2024/03/19 04:29:03;;;;;;;9.48;5.53;;;11.50;85.00;;;;;;5070170;28;20537;-66
2024/03/19 04:31:28;;;;;;;7.75;4.32;;;11.50;85.00;;;;;;5074941;28;20021;-66
2024/03/19 04:33:54;;;;;;;10.52;6.78;;;11.50;84.90;;;;;;5076527;28;20037;-67
2024/03/19 04:36:20;;;;;;;11.43;5.70;;;11.50;85.00;;;;;;5074213;28;20032;-67
2024/03/19 04:38:45;;;;;;;8.77;4.88;;;11.50;85.10;;;;;;5069659;28;20032;-67
2024/03/19 04:41:12;;;;;;;7.93;4.55;;;11.60;85.10;;;;;;5078410;28;20062;-68
2024/03/19 04:43:37;;;;;;;8.43;4.35;;;11.60;85.00;;;;;;5073787;28;20059;-68
2024/03/19 04:46:03;;;;;;;7.43;3.90;;;11.60;85.00;;;;;;5073874;28;20056;-68
2024/03/19 04:48:29;;;;;;;9.30;5.03;;;11.70;85.00;;;;;;5074427;28;20024;-67
2024/03/19 04:50:54;;;;;;;9.27;4.93;;;11.70;85.00;;;;;;5074893;28;20449;-67
2024/03/19 04:53:20;;;;;;;13.65;7.00;;;11.60;85.00;;;;;;5070988;28;20027;-68
2024/03/19 04:55:45;;;;;;;12.02;7.20;;;11.70;85.10;;;;;;5071463;28;20052;-68
2024/03/19 04:58:11;;;;;;;12.32;6.40;;;11.60;85.60;;;;;;5069558;28;20861;-67
2024/03/19 05:00:37;;;;;;;12.85;6.95;;;11.60;85.30;;;;;;5072464;28;20056;-68
2024/03/19 05:03:02;;;;;;;11.63;6.22;;;11.60;85.40;;;;;;5074186;28;20083;-67
2024/03/19 05:05:28;;;;;;;11.65;6.60;;;11.50;85.40;;;;;;5075153;28;20449;-68
2024/03/19 05:07:54;;;;;;;9.38;5.20;;;11.60;85.50;;;;;;5070686;28;20020;-68
2024/03/19 05:10:19;;;;;;;10.30;5.65;;;11.60;85.50;;;;;;5072885;28;20038;-67
2024/03/19 05:12:45;;;;;;;11.75;6.60;;;11.60;85.50;;;;;;5073244;28;20032;-67
2024/03/19 05:15:10;;;;;;;11.35;6.70;;;11.60;85.60;;;;;;5068324;28;20491;-67
2024/03/19 05:17:36;;;;;;;10.65;6.65;;;11.50;85.70;;;;;;5072385;28;20021;-67
2024/03/19 05:20:02;;;;;;;9.98;5.68;;;11.60;85.80;;;;;;5070023;28;20029;-67
2024/03/19 05:22:28;;;;;;;10.15;5.85;;;11.60;85.80;;;;;;5068480;28;20055;-67
2024/03/19 05:24:53;;;;;;;11.18;6.65;;;11.60;85.80;;;;;;5076697;28;20063;-68
2024/03/19 05:27:19;;;;;;;11.48;6.97;;;11.60;85.80;;;;;;5077301;28;20035;-68
2024/03/19 05:29:45;;;;;;;12.15;6.40;;;11.60;85.90;;;;;;5073755;28;20036;-67
2024/03/19 05:32:10;;;;;;;12.85;7.32;;;11.60;86.00;;;;;;5073989;28;20038;-66
2024/03/19 05:34:37;;;;;;;11.75;6.38;;;11.60;86.00;;;;;;5070206;28;20032;-67
2024/03/19 05:37:02;;;;;;;12.40;6.35;;;11.50;86.10;;;;;;5073731;28;20020;-67
2024/03/19 05:39:28;;;;;;;15.35;8.05;;;11.50;86.20;;;;;;5081848;28;20530;-67
2024/03/19 05:41:54;;;;;;;15.70;8.27;;;11.50;86.30;;;;;;5072876;28;20120;-68
2024/03/19 05:44:20;;;;;;;12.75;7.00;;;11.50;86.50;;;;;;5077586;28;20114;-67
2024/03/19 05:46:45;;;;;;;13.60;7.10;;;11.50;86.70;;;;;;5077558;28;20112;-64
2024/03/19 05:49:11;;;;;;;15.70;8.90;;;11.60;86.60;;;;;;5078868;28;20028;-67
2024/03/19 05:51:37;;;;;;;13.07;7.65;;;11.50;86.80;;;;;;5074981;28;20028;-66
2024/03/19 05:54:02;;;;;;;14.23;8.57;;;11.50;86.80;;;;;;5071593;28;20027;-67
2024/03/19 05:56:28;;;;;;;11.82;6.68;;;11.50;86.80;;;;;;5071633;28;20021;-67
2024/03/19 05:58:54;;;;;;;12.90;7.30;;;11.50;86.90;;;;;;5077038;28;20154;-67
2024/03/19 06:01:20;;;;;;;10.73;6.07;;;11.50;86.90;;;;;;5079007;28;20031;-66
2024/03/19 06:03:45;;;;;;;10.57;6.13;;;11.60;86.90;;;;;;5076609;28;20036;-66
2024/03/19 06:06:11;;;;;;;8.95;4.70;;;11.60;86.80;;;;;;5075609;28;20029;-66
2024/03/19 06:08:38;;;;;;;8.20;4.53;;;11.70;86.80;;;;;;5106489;27;20114;-66
2024/03/19 06:11:04;;;;;;;7.45;4.65;;;11.70;86.80;;;;;;5075095;28;20028;-68
2024/03/19 06:13:30;;;;;;;6.95;3.92;;;11.70;86.70;;;;;;5075826;28;20032;-68
2024/03/19 06:15:55;;;;;;;9.43;5.53;;;11.70;86.70;;;;;;5073550;28;20026;-67
2024/03/19 06:18:21;;;;;;;12.50;7.50;;;11.70;86.70;;;;;;5071674;28;20054;-66
2024/03/19 06:20:47;;;;;;;9.35;5.07;;;11.70;86.90;;;;;;5082083;28;20401;-68
2024/03/19 06:23:13;;;;;;;8.77;5.18;;;11.70;86.90;;;;;;5074381;28;20054;-67
2024/03/19 06:25:39;;;;;;;6.90;4.25;;;11.80;86.80;;;;;;5073746;28;20442;-68
2024/03/19 06:28:05;;;;;;;6.50;4.00;;;11.90;86.70;;;;;;5077183;28;20028;-67
2024/03/19 06:30:31;;;;;;;6.85;3.72;;;11.90;86.70;;;;;;5073634;28;20111;-67
2024/03/19 06:32:58;;;;;;;5.30;3.30;;;12.00;86.60;;;;;;5071254;28;20036;-68
2024/03/19 06:35:24;;;;;;;5.20;2.97;;;12.00;86.60;;;;;;5073133;28;20421;-66
2024/03/19 06:37:50;;;;;;;5.25;2.70;;;12.10;86.40;;;;;;5076295;28;20020;-68
2024/03/19 06:40:17;;;;;;;5.07;3.08;;;12.10;86.40;;;;;;5072281;28;20078;-67
2024/03/19 06:42:43;;;;;;;5.60;2.88;;;12.20;86.30;;;;;;5073431;28;20016;-66
2024/03/19 06:45:08;;;;;;;4.88;2.60;;;12.20;86.30;;;;;;5072776;28;20099;-67
2024/03/19 06:47:35;;;;;;;4.30;2.83;;;12.20;86.20;;;;;;5073948;28;20031;-68
2024/03/19 06:50:06;;;;;;;4.40;2.75;;;12.20;86.20;;;;;;5075162;28;20115;-67
2024/03/19 06:52:35;;;;;;;5.22;2.88;;;12.30;86.30;;;;;;5071171;28;20033;-67
2024/03/19 06:55:02;;;;;;;8.98;4.68;;;12.30;86.30;;;;;;5072172;28;20025;-68
2024/03/19 06:57:28;;;;;;;9.45;5.43;;;12.30;86.30;;;;;;5071384;28;20082;-67
2024/03/19 06:59:54;;;;;;;6.38;4.18;;;12.30;86.40;;;;;;5077434;28;20019;-68
2024/03/19 07:02:20;;;;;;;9.77;3.88;;;12.30;86.40;;;;;;5071545;28;20020;-67
2024/03/19 07:04:46;;;;;;;8.90;5.00;;;12.40;86.30;;;;;;5077529;28;20074;-66
2024/03/19 07:07:16;;;;;;;7.75;4.10;;;12.40;86.20;;;;;;5071763;28;20032;-68
2024/03/19 07:09:41;;;;;;;6.32;3.85;;;12.40;86.20;;;;;;5069826;28;20057;-67
2024/03/19 07:12:10;;;;;;;7.28;3.45;;;12.40;86.20;;;;;;5072739;28;20031;-68
2024/03/19 07:14:36;;;;;;;5.80;3.75;;;12.40;86.20;;;;;;5071715;28;20461;-67
2024/03/19 07:17:02;;;;;;;6.63;3.75;;;12.40;86.30;;;;;;5071763;28;20020;-67
2024/03/19 07:19:28;;;;;;;6.65;3.78;;;12.30;86.30;;;;;;5071194;28;20054;-67
2024/03/19 07:21:53;;;;;;;7.03;4.47;;;12.40;86.30;;;;;;5071537;28;20573;-67
2024/03/19 07:24:19;;;;;;;5.65;3.72;;;12.30;86.30;;;;;;5074452;28;20032;-68
2024/03/19 07:26:44;;;;;;;6.78;3.85;;;12.30;86.40;;;;;;5100265;27;20040;-65
2024/03/19 07:29:10;;;;;;;6.22;3.83;;;12.40;86.50;;;;;;5067998;28;20066;-67
2024/03/19 07:31:40;;;;;;;5.88;3.72;;;12.40;86.50;;;;;;5074125;28;20044;-67
2024/03/19 07:34:06;;;;;;;4.75;3.30;;;12.40;86.50;;;;;;5067843;28;20020;-68
2024/03/19 07:36:32;;;;;;;4.90;2.97;;;12.40;86.40;;;;;;5074776;28;20024;-67
2024/03/19 07:38:57;;;;;;;7.55;4.70;;;12.50;86.40;;;;;;5071202;28;20025;-68
2024/03/19 07:41:23;;;;;;;7.85;4.07;;;12.50;86.40;;;;;;5079586;28;20533;-67
2024/03/19 07:43:49;;;;;;;9.50;5.55;;;12.50;86.30;;;;;;5069126;28;20024;-66
2024/03/19 07:46:16;;;;;;;7.78;4.50;;;12.50;86.40;;;;;;5075508;28;20069;-66
2024/03/19 07:48:45;;;;;;;9.15;5.30;;;12.60;86.40;;;;;;5067326;28;20567;-68
2024/03/19 07:51:11;;;;;;;7.95;4.93;;;12.60;86.30;;;;;;5069782;28;20025;-66
2024/03/19 07:53:36;;;;;;;10.25;5.78;;;12.60;86.30;;;;;;5068281;28;20033;-66
2024/03/19 07:56:02;;;;;;;9.95;5.63;;;12.60;86.20;;;;;;5067569;28;20394;-68
2024/03/19 07:58:28;;;;;;;8.63;4.88;;;12.60;86.20;;;;;;5068941;28;20016;-67
2024/03/19 08:00:53;;;;;;;7.28;4.28;;;12.70;86.20;;;;;;5064160;28;20017;-67
2024/03/19 08:03:19;;;;;;;8.45;4.78;;;12.70;86.10;;;;;;5071349;28;20040;-67
2024/03/19 08:05:48;;;;;;;7.45;4.28;;;12.80;86.10;;;;;;5075818;28;20036;-68
2024/03/19 08:08:14;;;;;;;7.72;4.88;;;12.80;86.00;;;;;;5069348;28;20037;-67
2024/03/19 08:10:40;;;;;;;9.98;4.95;;;12.90;86.00;;;;;;5074242;28;20116;-67
2024/03/19 08:13:05;;;;;;;7.03;3.90;;;12.90;85.80;;;;;;5068324;28;20111;-66
2024/03/19 08:15:32;;;;;;;7.00;4.00;;;13.00;85.80;;;;;;5069840;28;20024;-67
2024/03/19 08:17:58;;;;;;;5.95;3.80;;;13.00;85.70;;;;;;5068738;28;20033;-67
2024/03/19 08:20:23;;;;;;;6.07;3.10;;;13.00;85.70;;;;;;5068846;28;20104;-67
2024/03/19 08:22:49;;;;;;;6.13;3.40;;;13.10;85.60;;;;;;5079176;28;20024;-66
2024/03/19 08:25:15;;;;;;;5.95;3.55;;;13.10;85.60;;;;;;5065738;28;20081;-69
2024/03/19 08:27:40;;;;;;;9.07;4.70;;;13.20;85.50;;;;;;5079645;28;20035;-67
2024/03/19 08:30:08;;;;;;;7.45;4.38;;;13.30;85.30;;;;;;5079561;28;20030;-67
2024/03/19 08:32:34;;;;;;;9.05;5.05;;;13.30;85.20;;;;;;5070831;28;20490;-66
2024/03/19 08:35:00;;;;;;;9.10;5.30;;;13.30;85.30;;;;;;5069672;28;20060;-65
2024/03/19 08:37:26;;;;;;;9.05;4.63;;;13.40;85.20;;;;;;5082646;28;20066;-66
2024/03/19 08:39:52;;;;;;;7.13;4.07;;;13.50;85.20;;;;;;5072693;28;20100;-66
2024/03/19 08:42:18;;;;;;;6.95;3.92;;;13.60;85.00;;;;;;5074133;28;20432;-66
2024/03/19 08:44:43;;;;;;;9.15;5.20;;;13.70;84.70;;;;;;5070750;28;20032;-66
2024/03/19 08:47:09;;;;;;;6.55;3.97;;;13.70;84.70;;;;;;5072411;28;20023;-67
2024/03/19 08:49:35;;;;;;;6.75;3.70;;;13.80;84.60;;;;;;5075098;28;20097;-67
2024/03/19 08:52:01;;;;;;;6.35;3.70;;;13.90;84.50;;;;;;5068939;28;20024;-67
2024/03/19 08:54:27;;;;;;;5.57;3.35;;;13.80;84.40;;;;;;5069661;28;20506;-67
2024/03/19 08:56:52;;;;;;;6.63;3.90;;;13.80;84.60;;;;;;5076165;28;20027;-67
2024/03/19 08:59:18;;;;;;;6.38;3.80;;;13.80;84.60;;;;;;5068410;28;20024;-66
2024/03/19 09:01:44;;;;;;;4.85;3.00;;;14.00;84.80;;;;;;5073233;28;20044;-66
2024/03/19 09:04:09;;;;;;;5.25;3.20;;;14.20;85.10;;;;;;5072724;28;20024;-66
2024/03/19 09:06:35;;;;;;;6.53;3.67;;;14.30;84.30;;;;;;5076819;28;20440;-67
2024/03/19 09:09:01;;;;;;;4.57;3.05;;;14.40;84.00;;;;;;5078735;28;20028;-66
2024/03/19 09:11:31;;;;;;;6.15;3.20;;;14.40;83.70;;;;;;5079452;28;20036;-67
2024/03/19 09:13:57;;;;;;;7.95;3.88;;;14.50;83.70;;;;;;5076793;28;20056;-67
2024/03/19 09:16:23;;;;;;;7.30;4.10;;;14.60;83.50;;;;;;5079875;28;20107;-67
2024/03/19 09:18:48;;;;;;;6.25;3.63;;;14.60;83.00;;;;;;5075575;28;20566;-66
2024/03/19 09:21:14;;;;;;;7.35;4.25;;;14.70;83.00;;;;;;5076317;28;20399;-67
2024/03/19 09:23:40;;;;;;;7.03;3.45;;;14.70;82.40;;;;;;5077681;28;20645;-67
2024/03/19 09:26:06;;;;;;;5.88;2.60;;;14.70;82.40;;;;;;5072216;28;20140;-67
2024/03/19 09:28:32;;;;;;;4.20;2.38;;;14.90;82.30;;;;;;5080122;28;20099;-66
2024/03/19 09:30:59;;;;;;;5.53;2.75;;;15.00;82.00;;;;;;5085450;28;20024;-66
2024/03/19 09:33:25;;;;;;;4.80;2.17;;;15.10;81.80;;;;;;5077677;28;20020;-67
2024/03/19 09:35:50;;;;;;;2.92;2.13;;;15.20;81.70;;;;;;5073226;28;20110;-67
2024/03/19 09:38:18;;;;;;;2.92;1.90;;;15.30;81.20;;;;;;5069835;28;20115;-67
2024/03/19 09:40:59;;;;;;;3.05;1.90;;;15.30;80.80;;;;;;5072218;28;20176;-66
2024/03/19 09:43:25;;;;;;;4.20;1.67;;;15.40;80.40;;;;;;5078938;28;20063;-67
2024/03/19 09:45:51;;;;;;;6.90;1.95;;;15.50;79.70;;;;;;5076647;28;20482;-67
2024/03/19 09:48:18;;;;;;;4.57;1.75;;;15.50;79.60;;;;;;5072493;28;20119;-67
2024/03/19 09:50:45;;;;;;;2.95;1.60;;;15.50;78.80;;;;;;5078815;28;20278;-67
2024/03/19 09:53:24;;;;;;;2.65;1.10;;;15.60;78.70;;;;;;5079271;28;20025;-66
2024/03/19 09:55:52;;;;;;;2.92;1.30;;;15.70;78.90;;;;;;5083252;28;20395;-67
2024/03/19 09:58:21;;;;;;;1.77;1.10;;;15.80;77.80;;;;;;5075666;28;20112;-68
2024/03/19 10:00:47;;;;;;;2.47;1.23;;;15.90;77.40;;;;;;5069799;28;20085;-67
2024/03/19 10:03:13;;;;;;;2.17;1.02;;;15.80;76.10;;;;;;5069742;28;20016;-67
2024/03/19 10:05:39;;;;;;;1.73;0.90;;;15.90;76.40;;;;;;5077179;28;20058;-66
2024/03/19 10:08:06;;;;;;;1.40;0.90;;;16.00;75.90;;;;;;5071548;28;20463;-67
2024/03/19 10:10:32;;;;;;;2.50;0.90;;;16.00;75.90;;;;;;5076112;28;20418;-67
2024/03/19 10:12:59;;;;;;;2.75;1.10;;;16.00;75.40;;;;;;5073240;28;20024;-66
2024/03/19 10:15:24;;;;;;;2.03;1.10;;;16.10;75.30;;;;;;5079016;28;20474;-67
2024/03/19 10:17:51;;;;;;;2.20;1.20;;;16.10;75.80;;;;;;5071859;28;20099;-64
2024/03/19 10:20:17;;;;;;;2.13;1.08;;;16.20;75.10;;;;;;5070502;28;20027;-68
2024/03/19 10:22:45;;;;;;;2.10;0.90;;;16.10;74.40;;;;;;5073238;28;20028;-65
2024/03/19 10:25:14;;;;;;;1.10;0.90;;;16.20;74.80;;;;;;5075690;28;20028;-66
2024/03/19 10:27:49;;;;;;;2.72;1.00;;;16.30;75.00;;;;;;5075262;28;20560;-65
2024/03/19 10:30:17;;;;;;;1.95;1.00;;;16.40;74.90;;;;;;5079909;28;20028;-66
2024/03/19 10:32:44;;;;;;;5.63;1.30;;;16.40;74.70;;;;;;5080990;28;20093;-66
2024/03/19 10:35:21;;;;;;;0.90;0.80;;;16.50;74.10;;;;;;5073992;28;20388;-66
2024/03/19 10:37:48;;;;;;;4.60;1.52;;;16.60;74.40;;;;;;5070376;28;20025;-65
2024/03/19 10:40:16;;;;;;;2.88;1.50;;;16.60;73.40;;;;;;5073562;28;20069;-66
2024/03/19 10:42:43;;;;;;;3.13;1.30;;;16.60;72.90;;;;;;5073244;28;20021;-65
2024/03/19 10:45:17;;;;;;;3.80;1.50;;;16.60;72.70;;;;;;5079311;28;20452;-65
2024/03/19 10:47:45;;;;;;;2.95;1.83;;;16.70;72.90;;;;;;5072301;28;20037;-66
2024/03/19 10:50:13;;;;;;;3.42;1.75;;;16.70;73.30;;;;;;5080499;28;20225;-65
2024/03/19 10:52:42;;;;;;;2.35;1.70;;;16.70;72.50;;;;;;5076720;28;20487;-65
2024/03/19 10:55:13;;;;;;;4.10;1.95;;;16.80;72.40;;;;;;5072043;28;20032;-65
2024/03/19 10:57:39;;;;;;;5.00;2.97;;;16.80;72.70;;;;;;5068723;28;20027;-68
2024/03/19 11:00:24;;;;;;;4.32;2.10;;;16.80;72.40;;;;;;5070246;28;20036;-66
2024/03/19 11:02:51;;;;;;;5.60;2.70;;;16.90;72.40;;;;;;5077572;28;20012;-65
2024/03/19 11:05:20;;;;;;;5.20;2.35;;;16.80;72.10;;;;;;5073022;28;20051;-65
2024/03/19 11:07:49;;;;;;;4.97;2.70;;;16.90;72.40;;;;;;5073256;28;20024;-65
2024/03/19 11:10:25;;;;;;;4.53;2.55;;;16.90;71.90;;;;;;5070532;28;20024;-64
2024/03/19 11:13:08;;;;;;;5.45;2.72;;;17.00;72.30;;;;;;5078226;28;20036;-65
2024/03/19 11:15:35;;;;;;;8.77;3.40;;;16.90;72.00;;;;;;5074906;28;20027;-65
2024/03/19 11:18:12;;;;;;;7.60;2.85;;;17.00;71.70;;;;;;5069712;28;20019;-64
2024/03/19 11:20:44;;;;;;;3.75;2.30;;;16.90;71.50;;;;;;5078269;28;20055;-65
2024/03/19 11:23:23;;;;;;;3.22;1.80;;;16.90;71.70;;;;;;5078631;28;20019;-65
2024/03/19 11:25:49;;;;;;;4.47;1.95;;;17.10;72.00;;;;;;5077005;28;20016;-66
2024/03/19 11:28:30;;;;;;;3.35;1.70;;;17.20;72.30;;;;;;5069114;28;20111;-65
2024/03/19 11:30:57;;;;;;;5.60;1.87;;;17.30;71.70;;;;;;5071878;28;20626;-66
2024/03/19 11:33:24;;;;;;;3.97;1.70;;;17.40;71.20;;;;;;5081271;28;20039;-65
2024/03/19 11:35:51;;;;;;;4.43;1.70;;;17.40;71.10;;;;;;5065673;28;20479;-65
2024/03/19 11:38:18;;;;;;;4.82;1.73;;;17.40;69.70;;;;;;5067428;28;20052;-65
2024/03/19 11:40:43;;;;;;;4.65;1.98;;;17.40;69.80;;;;;;5064305;28;20178;-66
2024/03/19 11:43:13;;;;;;;3.63;1.90;;;17.30;69.60;;;;;;5064419;28;20387;-65
2024/03/19 11:45:42;;;;;;;5.85;1.85;;;17.40;69.60;;;;;;5076456;28;20485;-66
2024/03/19 11:48:18;;;;;;;5.35;2.47;;;17.50;69.60;;;;;;5067212;28;20040;-66
2024/03/19 11:50:53;;;;;;;3.53;1.73;;;17.60;69.30;;;;;;5064838;28;20032;-66
2024/03/19 11:53:19;;;;;;;4.00;1.40;;;17.70;69.30;;;;;;5070012;28;20426;-66
2024/03/19 11:55:47;;;;;;;3.17;1.20;;;17.90;69.30;;;;;;5072418;28;20104;-66
2024/03/19 11:58:13;;;;;;;2.63;1.35;;;18.10;69.60;;;;;;5074279;28;20149;-66
2024/03/19 12:00:39;;;;;;;2.78;1.45;;;18.10;69.10;;;;;;5068337;28;20028;-66
2024/03/19 12:03:05;;;;;;;2.00;1.10;;;18.00;69.70;;;;;;5063807;28;20020;-66
2024/03/19 12:05:30;;;;;;;3.85;2.17;;;18.10;69.80;;;;;;5079923;28;20391;-67
2024/03/19 12:07:56;;;;;;;2.65;1.83;;;18.00;69.00;;;;;;5067410;28;20398;-66
2024/03/19 12:10:24;;;;;;;3.42;1.95;;;17.80;68.40;;;;;;5069565;28;20043;-65
2024/03/19 12:12:54;;;;;;;3.50;2.10;;;17.80;68.90;;;;;;5066568;28;20098;-66
2024/03/19 12:15:21;;;;;;;2.28;1.50;;;17.80;69.10;;;;;;5067721;28;20054;-65
2024/03/19 12:17:48;;;;;;;4.20;2.00;;;17.80;69.50;;;;;;5067536;28;20020;-65
2024/03/19 12:20:15;;;;;;;4.95;1.50;;;17.80;69.10;;;;;;5070596;28;20098;-65
2024/03/19 12:22:45;;;;;;;2.83;1.45;;;17.80;69.10;;;;;;5070053;28;20021;-66
2024/03/19 12:25:11;;;;;;;4.18;1.58;;;17.90;69.10;;;;;;5059004;28;20102;-66
2024/03/19 12:27:40;;;;;;;4.05;1.50;;;17.80;68.70;;;;;;5070204;28;20024;-65
2024/03/19 12:30:17;;;;;;;2.47;1.25;;;17.90;68.70;;;;;;5073181;28;20025;-65
2024/03/19 12:32:59;;;;;;;2.63;1.38;;;17.90;69.20;;;;;;5073287;28;20032;-65
2024/03/19 12:35:25;;;;;;;1.95;1.10;;;17.90;68.60;;;;;;5083644;28;20103;-65
2024/03/19 12:37:50;;;;;;;5.70;2.13;;;18.00;69.00;;;;;;5081910;28;20074;-66
2024/03/19 12:40:18;;;;;;;5.82;1.70;;;17.90;67.90;;;;;;5081610;28;20021;-66
2024/03/19 12:42:48;;;;;;;3.38;1.70;;;17.90;67.90;;;;;;5072825;28;20078;-65